DLH8YH EDDM-EGCC
Flight info
| Callsign | DLH8YH |
|---|---|
| Flight time | N/A |
| Altitude | 34000 |
| Route | INPUD2N INPUD Y102 ALIBU DCT MASEK DCT ARPEG DCT GALSO Q63 ERING L179 LAM UN57 WELIN T420 ELVOS |
| Aircraft | A21N/M-SDE2E3FGIJ1LORWXYZ/HB1 |
Departure
| Time | 2026-05-05 07:37 |
|---|---|
| Airport | Munich Airport (EDDM) |
Arrival
| Time | N/A |
|---|---|
| Airport | Manchester Airport (EGCC) |
| Time | Latitude | Longitude | Altitude | Speed | Heading |
|---|---|---|---|---|---|
| 2026-05-05 07:10 | 48.35644 | 11.79276 | 1470 ft | 0 kts | 263° |
| 2026-05-05 07:25 | 48.35645 | 11.79281 | 1471 ft | 2 kts | 263° |
| 2026-05-05 07:26 | 48.35646 | 11.79304 | 1471 ft | 2 kts | 263° |
| 2026-05-05 07:26 | 48.35648 | 11.79326 | 1470 ft | 2 kts | 263° |
| 2026-05-05 07:26 | 48.35650 | 11.79348 | 1470 ft | 2 kts | 263° |
| 2026-05-05 07:26 | 48.35652 | 11.79371 | 1470 ft | 2 kts | 263° |
| 2026-05-05 07:27 | 48.35651 | 11.79393 | 1469 ft | 2 kts | 296° |
| 2026-05-05 07:27 | 48.35641 | 11.79412 | 1468 ft | 2 kts | 322° |
| 2026-05-05 07:27 | 48.35628 | 11.79422 | 1467 ft | 1 kts | 348° |
| 2026-05-05 07:27 | 48.35622 | 11.79423 | 1467 ft | 1 kts | 355° |
| 2026-05-05 07:28 | 48.35619 | 11.79423 | 1467 ft | 0 kts | 354° |
| 2026-05-05 07:29 | 48.35631 | 11.79421 | 1467 ft | 4 kts | 354° |
| 2026-05-05 07:30 | 48.35672 | 11.79414 | 1469 ft | 6 kts | 353° |
| 2026-05-05 07:30 | 48.35800 | 11.79391 | 1474 ft | 12 kts | 353° |
| 2026-05-05 07:30 | 48.35898 | 11.79370 | 1475 ft | 16 kts | 344° |
| 2026-05-05 07:31 | 48.36029 | 11.79327 | 1468 ft | 22 kts | 354° |
| 2026-05-05 07:31 | 48.36107 | 11.79492 | 1462 ft | 23 kts | 84° |
| 2026-05-05 07:31 | 48.36126 | 11.79744 | 1457 ft | 25 kts | 83° |
| 2026-05-05 07:31 | 48.36147 | 11.80012 | 1454 ft | 25 kts | 84° |
| 2026-05-05 07:32 | 48.36166 | 11.80259 | 1451 ft | 22 kts | 83° |
| 2026-05-05 07:32 | 48.36184 | 11.80499 | 1449 ft | 23 kts | 83° |
| 2026-05-05 07:32 | 48.36203 | 11.80741 | 1448 ft | 23 kts | 84° |
| 2026-05-05 07:32 | 48.36222 | 11.80985 | 1447 ft | 23 kts | 83° |
| 2026-05-05 07:33 | 48.36240 | 11.81220 | 1446 ft | 23 kts | 84° |
| 2026-05-05 07:33 | 48.36258 | 11.81456 | 1448 ft | 21 kts | 83° |
| 2026-05-05 07:33 | 48.36276 | 11.81677 | 1448 ft | 21 kts | 83° |
| 2026-05-05 07:33 | 48.36296 | 11.81887 | 1448 ft | 15 kts | 69° |
| 2026-05-05 07:34 | 48.36376 | 11.81995 | 1447 ft | 16 kts | 26° |
| 2026-05-05 07:34 | 48.36478 | 11.81993 | 1446 ft | 14 kts | 353° |
| 2026-05-05 07:34 | 48.36556 | 11.81980 | 1446 ft | 5 kts | 354° |
| 2026-05-05 07:34 | 48.36561 | 11.81979 | 1446 ft | 0 kts | 354° |
| 2026-05-05 07:35 | 48.36564 | 11.81978 | 1446 ft | 1 kts | 354° |
| 2026-05-05 07:35 | 48.36596 | 11.81973 | 1446 ft | 8 kts | 353° |
| 2026-05-05 07:35 | 48.36663 | 11.81956 | 1446 ft | 8 kts | 324° |
| 2026-05-05 07:36 | 48.36671 | 11.81881 | 1446 ft | 0 kts | 264° |
| 2026-05-05 07:36 | 48.36671 | 11.81880 | 1446 ft | 0 kts | 264° |
| 2026-05-05 07:36 | 48.36667 | 11.81822 | 1446 ft | 23 kts | 264° |
| 2026-05-05 07:36 | 48.36617 | 11.81187 | 1447 ft | 96 kts | 263° |
| 2026-05-05 07:37 | 48.36518 | 11.79889 | 1455 ft | 154 kts | 263° |
| 2026-05-05 07:37 | 48.36385 | 11.78127 | 1757 ft | 176 kts | 265° |
| 2026-05-05 07:37 | 48.36261 | 11.76270 | 2381 ft | 180 kts | 264° |
| 2026-05-05 07:37 | 48.36110 | 11.74428 | 3012 ft | 188 kts | 264° |
| 2026-05-05 07:38 | 48.35949 | 11.72353 | 3341 ft | 207 kts | 263° |
| 2026-05-05 07:38 | 48.35766 | 11.70125 | 3668 ft | 226 kts | 264° |
| 2026-05-05 07:38 | 48.35957 | 11.67758 | 4198 ft | 235 kts | 295° |
| 2026-05-05 07:38 | 48.37011 | 11.65867 | 4755 ft | 247 kts | 324° |
| 2026-05-05 07:39 | 48.38703 | 11.64906 | 5088 ft | 270 kts | 347° |
| 2026-05-05 07:39 | 48.40553 | 11.64419 | 5717 ft | 277 kts | 348° |
| 2026-05-05 07:39 | 48.42455 | 11.63941 | 6493 ft | 279 kts | 348° |
| 2026-05-05 07:39 | 48.44366 | 11.63425 | 7238 ft | 281 kts | 347° |
| 2026-05-05 07:40 | 48.46292 | 11.62877 | 7924 ft | 286 kts | 346° |
| 2026-05-05 07:40 | 48.48261 | 11.62304 | 8662 ft | 288 kts | 346° |
| 2026-05-05 07:40 | 48.50227 | 11.61725 | 9333 ft | 293 kts | 346° |
| 2026-05-05 07:40 | 48.52228 | 11.61137 | 10048 ft | 296 kts | 345° |
| 2026-05-05 07:41 | 48.54243 | 11.60541 | 10707 ft | 300 kts | 345° |
| 2026-05-05 07:41 | 48.56305 | 11.59870 | 11257 ft | 307 kts | 342° |
| 2026-05-05 07:41 | 48.58389 | 11.58938 | 11566 ft | 321 kts | 337° |
| 2026-05-05 07:41 | 48.60502 | 11.57755 | 12035 ft | 330 kts | 335° |
| 2026-05-05 07:42 | 48.62635 | 11.56505 | 12683 ft | 333 kts | 335° |
| 2026-05-05 07:42 | 48.64772 | 11.55253 | 13344 ft | 335 kts | 334° |
| 2026-05-05 07:42 | 48.66955 | 11.53980 | 13997 ft | 338 kts | 334° |
| 2026-05-05 07:42 | 48.69147 | 11.52711 | 14632 ft | 340 kts | 334° |
| 2026-05-05 07:43 | 48.71361 | 11.51432 | 15258 ft | 342 kts | 334° |
| 2026-05-05 07:43 | 48.73577 | 11.50151 | 15873 ft | 344 kts | 334° |
| 2026-05-05 07:43 | 48.75802 | 11.48861 | 16477 ft | 345 kts | 333° |
| 2026-05-05 07:43 | 48.78047 | 11.47558 | 17072 ft | 347 kts | 333° |
| 2026-05-05 07:44 | 48.80288 | 11.46256 | 17652 ft | 348 kts | 333° |
| 2026-05-05 07:44 | 48.82545 | 11.44943 | 18235 ft | 349 kts | 333° |
| 2026-05-05 07:44 | 48.84811 | 11.43624 | 18812 ft | 349 kts | 333° |
| 2026-05-05 07:44 | 48.87085 | 11.42298 | 19360 ft | 350 kts | 332° |
| 2026-05-05 07:45 | 48.89356 | 11.40972 | 19891 ft | 352 kts | 332° |
| 2026-05-05 07:45 | 48.91644 | 11.39635 | 20416 ft | 353 kts | 332° |
| 2026-05-05 07:45 | 48.93951 | 11.38285 | 20934 ft | 353 kts | 332° |
| 2026-05-05 07:45 | 48.96245 | 11.36942 | 21438 ft | 354 kts | 332° |
| 2026-05-05 07:46 | 48.98546 | 11.35594 | 21929 ft | 355 kts | 332° |
| 2026-05-05 07:46 | 49.00856 | 11.34236 | 22424 ft | 355 kts | 331° |
| 2026-05-05 07:46 | 49.03149 | 11.32879 | 22918 ft | 356 kts | 331° |
| 2026-05-05 07:46 | 49.05473 | 11.31503 | 23397 ft | 356 kts | 330° |
| 2026-05-05 07:47 | 49.07775 | 11.30144 | 23856 ft | 357 kts | 330° |
| 2026-05-05 07:47 | 49.10053 | 11.28800 | 24297 ft | 358 kts | 330° |
| 2026-05-05 07:47 | 49.12431 | 11.27406 | 24740 ft | 359 kts | 330° |
| 2026-05-05 07:47 | 49.14745 | 11.26048 | 25165 ft | 360 kts | 330° |
| 2026-05-05 07:48 | 49.17069 | 11.24680 | 25589 ft | 360 kts | 330° |
| 2026-05-05 07:48 | 49.19404 | 11.23302 | 26004 ft | 361 kts | 330° |
| 2026-05-05 07:48 | 49.21756 | 11.21913 | 26411 ft | 362 kts | 330° |
| 2026-05-05 07:48 | 49.24105 | 11.20574 | 26805 ft | 363 kts | 331° |
| 2026-05-05 07:49 | 49.26486 | 11.19236 | 27193 ft | 364 kts | 331° |
| 2026-05-05 07:49 | 49.28838 | 11.17913 | 27571 ft | 364 kts | 331° |
| 2026-05-05 07:49 | 49.31236 | 11.16560 | 27947 ft | 365 kts | 331° |
| 2026-05-05 07:49 | 49.33600 | 11.15222 | 28313 ft | 365 kts | 331° |
| 2026-05-05 07:50 | 49.35990 | 11.13867 | 28676 ft | 366 kts | 331° |
| 2026-05-05 07:50 | 49.38382 | 11.12509 | 29034 ft | 366 kts | 331° |
| 2026-05-05 07:50 | 49.40762 | 11.11156 | 29388 ft | 367 kts | 331° |
| 2026-05-05 07:50 | 49.43159 | 11.09791 | 29736 ft | 367 kts | 331° |
| 2026-05-05 07:51 | 49.45545 | 11.08431 | 30017 ft | 369 kts | 331° |
| 2026-05-05 07:51 | 49.47968 | 11.07045 | 30202 ft | 373 kts | 331° |
| 2026-05-05 07:51 | 49.50377 | 11.05552 | 30465 ft | 373 kts | 329° |
| 2026-05-05 07:51 | 49.52734 | 11.03876 | 30777 ft | 371 kts | 326° |
| 2026-05-05 07:52 | 49.54978 | 11.02064 | 31079 ft | 369 kts | 324° |
| 2026-05-05 07:52 | 49.57194 | 11.00071 | 31366 ft | 369 kts | 322° |
| 2026-05-05 07:52 | 49.59413 | 10.98004 | 31641 ft | 370 kts | 322° |
| 2026-05-05 07:52 | 49.61601 | 10.95951 | 31852 ft | 372 kts | 322° |
| 2026-05-05 07:53 | 49.63817 | 10.93866 | 32095 ft | 373 kts | 322° |
| 2026-05-05 07:53 | 49.66029 | 10.91781 | 32379 ft | 373 kts | 322° |
| 2026-05-05 07:53 | 49.68219 | 10.89714 | 32662 ft | 373 kts | 322° |
| 2026-05-05 07:53 | 49.70446 | 10.87608 | 32934 ft | 373 kts | 322° |
| 2026-05-05 07:54 | 49.72660 | 10.85513 | 33190 ft | 374 kts | 322° |
| 2026-05-05 07:54 | 49.74853 | 10.83437 | 33431 ft | 374 kts | 322° |
| 2026-05-05 07:54 | 49.77063 | 10.81343 | 33660 ft | 375 kts | 322° |
| 2026-05-05 07:54 | 49.79231 | 10.79286 | 33827 ft | 376 kts | 321° |
| 2026-05-05 07:55 | 49.83591 | 10.75143 | 33849 ft | 377 kts | 321° |
| 2026-05-05 07:55 | 49.88029 | 10.70912 | 33854 ft | 377 kts | 321° |
| 2026-05-05 07:56 | 49.92495 | 10.66647 | 33854 ft | 377 kts | 321° |
| 2026-05-05 07:56 | 49.96934 | 10.62397 | 33854 ft | 377 kts | 321° |
| 2026-05-05 07:57 | 50.01398 | 10.58116 | 33853 ft | 376 kts | 321° |
| 2026-05-05 07:57 | 50.05824 | 10.53860 | 33853 ft | 376 kts | 321° |
| 2026-05-05 07:58 | 50.10250 | 10.49593 | 33853 ft | 377 kts | 321° |
| 2026-05-05 07:58 | 50.14727 | 10.45290 | 33854 ft | 377 kts | 321° |
| 2026-05-05 07:59 | 50.19197 | 10.40970 | 33854 ft | 377 kts | 321° |
| 2026-05-05 07:59 | 50.23642 | 10.36671 | 33854 ft | 377 kts | 321° |
| 2026-05-05 08:00 | 50.27459 | 10.32972 | 33855 ft | 377 kts | 321° |
| 2026-05-05 08:00 | 50.31385 | 10.29136 | 33854 ft | 375 kts | 320° |